Bo Tamarindo, Puerto Rico
Current Conditions -  °F | °C
As of 1:50 AM on Friday 28 Nov 2014 (Local Time) from TJBQ Reporting Station
Clear Clear  
Wind Chill: 72°   Ceiling: Unl
Heat Index: 72°   Visibility: 10mi
Dew Point: 66°   Wind: 5mph
Humidity: 83%   Direction: 130°SE
Pressure: 29.95"   Gusts: NA
Location:  18.0152°N, 66.6246°W
Report Text: TJBQ 280550Z 13004KT 10SM SKC 22/19 A2995 RMK RWY 08 ATIS N
Loading
Personal Weather Stations






























Interactive Weather Map New forecast layout! Learn more

10-Day Weather Forecast

Advertisements
Track Severe Weather on mobile